createdAt,value
2022-08-22T00:00:18.671Z,18.01
2022-08-22T00:01:29.681Z,17.96
2022-08-22T00:02:45.887Z,19.01
2022-08-22T00:02:59.808Z,18.14
2022-08-22T00:03:02.035Z,18.41
2022-08-22T00:03:02.257Z,19.64
2022-08-22T00:03:11.649Z,17.69
2022-08-22T00:03:16.003Z,17.90
2022-08-22T00:04:11.584Z,17.79
2022-08-22T00:05:29.154Z,17.82
2022-08-22T00:06:36.525Z,17.76
2022-08-22T00:07:39.293Z,17.93
2022-08-22T00:08:46.080Z,17.86
2022-08-22T00:10:08.557Z,18.01
2022-08-22T00:11:14.015Z,17.91
2022-08-22T00:12:30.674Z,17.96
2022-08-22T00:14:01.451Z,17.83
2022-08-22T00:15:42.596Z,17.73
2022-08-22T00:18:55.268Z,18.10
2022-08-22T00:20:10.198Z,17.84
2022-08-22T00:21:19.758Z,17.78
2022-08-22T00:22:34.193Z,17.90
2022-08-22T00:23:48.829Z,17.79
2022-08-22T00:25:00.268Z,17.92
2022-08-22T00:26:19.516Z,17.84
2022-08-22T00:27:29.766Z,17.84
2022-08-22T00:28:47.370Z,17.77
2022-08-22T00:29:55.727Z,17.93
2022-08-22T00:31:10.760Z,17.83
2022-08-22T00:32:20.794Z,17.89
2022-08-22T00:33:41.808Z,17.91
2022-08-22T00:34:59.705Z,18.05
2022-08-22T00:36:30.898Z,18.15
2022-08-22T00:37:39.072Z,18.14
2022-08-22T00:38:51.071Z,18.08
2022-08-22T00:40:14.855Z,18.17
2022-08-22T00:41:29.267Z,18.08
2022-08-22T00:42:40.726Z,18.04
2022-08-22T00:43:49.261Z,18.12
2022-08-22T00:45:19.943Z,18.04
2022-08-22T00:46:33.127Z,18.02
2022-08-22T00:47:38.665Z,18.04
2022-08-22T00:48:57.106Z,18.05
2022-08-22T00:50:08.872Z,17.98
2022-08-22T00:51:25.370Z,17.96
2022-08-22T00:52:46.066Z,17.95
2022-08-22T00:53:51.304Z,18.03
2022-08-22T00:56:57.198Z,18.04
2022-08-22T00:58:24.696Z,17.98
2022-08-22T00:59:38.686Z,17.91
2022-08-22T01:00:46.603Z,17.89
2022-08-22T01:02:02.177Z,17.95
2022-08-22T01:03:32.786Z,18.06
2022-08-22T01:05:08.546Z,18.09
2022-08-22T01:06:31.895Z,18.10
2022-08-22T01:08:09.232Z,18.03
2022-08-22T01:09:50.160Z,17.84
2022-08-22T01:11:04.768Z,17.85
2022-08-22T01:12:14.497Z,17.88
2022-08-22T01:13:20.617Z,18.00
2022-08-22T01:14:53.013Z,17.93
2022-08-22T01:16:21.215Z,17.90
2022-08-22T01:17:44.591Z,18.00
2022-08-22T01:19:08.655Z,17.96
2022-08-22T01:20:17.438Z,17.90
2022-08-22T01:21:37.682Z,17.79
2022-08-22T01:22:49.429Z,17.71
2022-08-22T01:24:25.495Z,17.81
2022-08-22T01:25:56.231Z,17.87
2022-08-22T01:27:43.544Z,17.86
2022-08-22T01:29:27.789Z,17.96
2022-08-22T01:30:53.177Z,17.99
2022-08-22T01:32:14.660Z,18.02
2022-08-22T01:33:35.210Z,17.95
2022-08-22T01:35:04.107Z,17.94
2022-08-22T01:36:15.517Z,17.90
2022-08-22T01:37:33.181Z,17.86
2022-08-22T01:38:54.939Z,17.76
2022-08-22T01:40:22.225Z,17.69
2022-08-22T01:41:35.609Z,17.79
2022-08-22T01:42:59.929Z,17.79
2022-08-22T01:44:21.156Z,17.73
2022-08-22T01:45:58.936Z,17.87
2022-08-22T01:47:17.590Z,17.99
2022-08-22T01:48:20.189Z,17.94
2022-08-22T01:49:27.627Z,17.99
2022-08-22T01:50:53.180Z,18.08
2022-08-22T01:52:12.617Z,17.91
2022-08-22T01:53:39.908Z,17.91
2022-08-22T01:54:55.044Z,17.86
2022-08-22T01:56:13.137Z,18.01
2022-08-22T01:57:16.633Z,18.04
2022-08-22T01:58:25.718Z,17.89
2022-08-22T01:59:43.614Z,18.01
2022-08-22T02:00:55.300Z,18.05
2022-08-22T02:02:36.827Z,17.99
2022-08-22T02:04:01.927Z,18.05
2022-08-22T02:05:18.789Z,18.00
2022-08-22T02:06:59.390Z,18.03
2022-08-22T02:08:57.375Z,18.06
2022-08-22T02:10:28.765Z,18.04
2022-08-22T02:11:44.013Z,17.90
2022-08-22T02:13:08.436Z,17.92
2022-08-22T02:14:23.399Z,17.99
2022-08-22T02:15:41.214Z,17.76
2022-08-22T02:16:59.550Z,17.86
2022-08-22T02:18:05.119Z,17.80
2022-08-22T02:19:16.524Z,17.84
2022-08-22T02:20:25.853Z,17.76
2022-08-22T02:21:48.019Z,17.76
2022-08-22T02:23:18.354Z,17.72
2022-08-22T02:24:29.521Z,17.83
2022-08-22T02:25:46.581Z,17.89
2022-08-22T02:27:07.154Z,17.96
2022-08-22T02:28:16.349Z,18.00
2022-08-22T02:29:41.905Z,17.96
2022-08-22T02:30:47.389Z,18.06
2022-08-22T02:32:03.393Z,18.11
2022-08-22T02:33:13.229Z,18.17
2022-08-22T02:34:27.904Z,18.11
2022-08-22T02:35:33.569Z,17.98
2022-08-22T02:37:03.557Z,17.89
2022-08-22T02:38:25.575Z,18.13
2022-08-22T02:39:36.990Z,18.15
2022-08-22T02:41:08.299Z,18.08
2022-08-22T02:42:25.994Z,18.17
2022-08-22T02:43:40.087Z,18.08
2022-08-22T02:44:53.037Z,18.07
2022-08-22T02:46:29.754Z,18.10
2022-08-22T02:47:40.749Z,18.05
2022-08-22T02:49:09.165Z,17.97
2022-08-22T02:50:12.789Z,18.13
2022-08-22T02:51:21.486Z,18.13
2022-08-22T02:52:35.458Z,18.15
2022-08-22T02:53:45.076Z,18.25
2022-08-22T02:55:14.130Z,18.20
2022-08-22T02:56:31.869Z,18.13
2022-08-22T02:57:52.890Z,18.18
2022-08-22T02:59:01.124Z,18.18
2022-08-22T03:00:31.565Z,18.19
2022-08-22T03:01:41.137Z,18.13
2022-08-22T03:02:44.670Z,18.21
2022-08-22T03:03:48.297Z,18.09
2022-08-22T03:05:16.130Z,18.13
2022-08-22T03:06:42.886Z,18.04
2022-08-22T03:07:57.295Z,17.97
2022-08-22T03:09:15.419Z,17.89
2022-08-22T03:10:27.892Z,17.88
2022-08-22T03:11:36.095Z,17.93
2022-08-22T03:12:41.921Z,17.96
2022-08-22T03:13:59.279Z,17.97
2022-08-22T03:15:21.878Z,18.04
2022-08-22T03:16:43.555Z,17.98
2022-08-22T03:17:52.954Z,17.94
2022-08-22T03:19:18.710Z,17.95
2022-08-22T03:20:50.992Z,17.91
2022-08-22T03:22:25.066Z,17.87
2022-08-22T03:23:40.931Z,17.92
2022-08-22T03:25:00.240Z,17.95
2022-08-22T03:26:26.023Z,17.93
2022-08-22T03:28:04.832Z,17.87
2022-08-22T03:29:35.920Z,17.87
2022-08-22T03:30:41.803Z,17.97
2022-08-22T03:32:09.841Z,18.05
2022-08-22T03:33:20.083Z,18.02
2022-08-22T03:34:24.075Z,18.05
2022-08-22T03:35:45.778Z,18.04
2022-08-22T03:37:02.550Z,18.16
2022-08-22T03:38:17.272Z,18.19
2022-08-22T03:39:39.743Z,18.30
2022-08-22T03:41:06.940Z,18.24
2022-08-22T03:42:20.194Z,18.29
2022-08-22T03:43:43.870Z,18.23
2022-08-22T03:45:23.429Z,18.08
2022-08-22T03:46:41.207Z,18.00
2022-08-22T03:48:05.651Z,18.07
2022-08-22T03:49:44.988Z,18.20
2022-08-22T03:51:20.986Z,18.35
2022-08-22T03:53:10.425Z,18.48
2022-08-22T03:54:37.615Z,18.47
2022-08-22T03:55:52.176Z,18.32
2022-08-22T03:57:20.286Z,18.31
2022-08-22T03:59:03.337Z,18.32
2022-08-22T04:00:37.855Z,18.44
2022-08-22T04:02:03.481Z,18.33
2022-08-22T04:04:13.573Z,18.27
2022-08-22T04:05:32.226Z,18.19
2022-08-22T04:06:53.750Z,18.27
2022-08-22T04:08:28.276Z,18.32
2022-08-22T04:09:49.493Z,18.40
2022-08-22T04:11:15.927Z,18.45
2022-08-22T04:12:55.895Z,18.37
2022-08-22T04:14:16.539Z,18.44
2022-08-22T04:15:19.011Z,18.50
2022-08-22T04:16:58.990Z,18.52
2022-08-22T04:18:46.228Z,18.59
2022-08-22T04:20:21.434Z,18.54
2022-08-22T04:21:59.658Z,18.59
2022-08-22T04:23:21.170Z,18.68
2022-08-22T04:24:32.877Z,18.64
2022-08-22T04:25:42.459Z,18.59
2022-08-22T04:27:03.954Z,18.73
2022-08-22T04:28:26.105Z,18.83
2022-08-22T04:29:36.389Z,18.75
2022-08-22T04:31:06.194Z,18.77
2022-08-22T04:32:12.731Z,18.71
2022-08-22T04:33:28.637Z,18.76
2022-08-22T04:34:40.407Z,18.69
2022-08-22T04:36:02.815Z,18.71
2022-08-22T04:37:20.420Z,18.73
2022-08-22T04:38:27.328Z,18.78
2022-08-22T04:39:41.103Z,18.81
2022-08-22T04:41:00.341Z,18.90
2022-08-22T04:42:33.300Z,19.04
2022-08-22T04:43:40.527Z,19.02
2022-08-22T04:45:01.154Z,19.06
2022-08-22T04:46:09.470Z,18.86
2022-08-22T04:47:39.667Z,19.02
2022-08-22T04:48:49.707Z,19.00
2022-08-22T04:49:59.846Z,19.10
2022-08-22T04:51:22.139Z,18.95
2022-08-22T04:52:50.109Z,18.77
2022-08-22T04:54:03.039Z,18.70
2022-08-22T04:55:08.765Z,18.90
2022-08-22T04:56:34.674Z,19.04
2022-08-22T04:57:48.672Z,19.03
2022-08-22T04:58:59.374Z,19.05
2022-08-22T05:00:08.157Z,19.07
2022-08-22T05:01:21.285Z,19.09
2022-08-22T05:02:28.053Z,18.96
2022-08-22T05:03:34.940Z,18.92
2022-08-22T05:04:46.045Z,18.97
2022-08-22T05:05:50.585Z,19.16
2022-08-22T05:07:03.505Z,19.18
2022-08-22T05:08:10.556Z,19.22
2022-08-22T05:09:22.126Z,19.04
2022-08-22T05:10:29.755Z,19.07
2022-08-22T05:11:36.636Z,19.24
2022-08-22T05:12:57.645Z,19.26
2022-08-22T05:14:12.600Z,19.39
2022-08-22T05:15:26.988Z,19.50
2022-08-22T05:16:40.959Z,19.49
2022-08-22T05:17:46.694Z,19.44
2022-08-22T05:19:07.298Z,19.42
2022-08-22T05:20:15.699Z,19.51
2022-08-22T05:21:23.647Z,19.54
2022-08-22T05:22:36.744Z,19.59
2022-08-22T05:23:48.705Z,19.69
2022-08-22T05:25:00.078Z,19.61
2022-08-22T05:26:06.172Z,19.52
2022-08-22T05:27:39.574Z,19.62
2022-08-22T05:28:53.446Z,19.57
2022-08-22T05:30:03.656Z,19.53
2022-08-22T05:31:14.390Z,19.55
2022-08-22T05:32:31.544Z,19.46
2022-08-22T05:33:42.877Z,19.53
2022-08-22T05:34:47.955Z,19.61
2022-08-22T05:36:21.781Z,19.61
2022-08-22T05:37:47.797Z,19.62
2022-08-22T05:39:22.428Z,19.52
2022-08-22T05:40:30.772Z,19.47
2022-08-22T05:41:39.919Z,19.54
2022-08-22T05:42:44.563Z,19.67
2022-08-22T05:43:50.841Z,19.34
2022-08-22T05:44:55.582Z,19.47
2022-08-22T05:45:59.990Z,19.37
2022-08-22T05:47:14.096Z,19.31
2022-08-22T05:48:20.714Z,19.38
2022-08-22T05:49:56.275Z,19.45
2022-08-22T05:51:13.075Z,19.51
2022-08-22T05:52:23.380Z,19.44
2022-08-22T05:53:45.348Z,19.50
2022-08-22T05:55:06.064Z,19.42
2022-08-22T05:56:14.406Z,19.42
2022-08-22T05:57:42.470Z,19.41
2022-08-22T05:58:48.263Z,19.64
2022-08-22T05:59:59.445Z,19.75
2022-08-22T06:01:28.601Z,19.78
2022-08-22T06:02:48.738Z,19.76
2022-08-22T06:04:04.530Z,19.94
2022-08-22T06:05:12.047Z,19.97
2022-08-22T06:06:17.697Z,20.03
2022-08-22T06:07:40.638Z,20.15
2022-08-22T06:09:03.082Z,20.22
2022-08-22T06:10:15.680Z,19.99
2022-08-22T06:11:32.765Z,20.27
2022-08-22T06:12:43.558Z,19.93
2022-08-22T06:13:58.154Z,19.98
2022-08-22T06:15:33.380Z,20.28
2022-08-22T06:16:48.845Z,20.45
2022-08-22T06:18:06.658Z,20.55
2022-08-22T06:19:19.413Z,20.56
2022-08-22T06:20:37.884Z,20.60
2022-08-22T06:21:43.980Z,20.65
2022-08-22T06:22:54.547Z,20.59
2022-08-22T06:24:01.499Z,20.56
2022-08-22T06:25:23.104Z,20.63
2022-08-22T06:26:31.119Z,20.81
2022-08-22T06:27:34.974Z,21.00
2022-08-22T06:28:54.765Z,21.02
2022-08-22T06:30:03.262Z,20.90
2022-08-22T06:31:15.283Z,20.90
2022-08-22T06:32:34.160Z,20.90
2022-08-22T06:34:03.503Z,21.05
2022-08-22T06:35:15.552Z,21.25
2022-08-22T06:36:32.780Z,21.25
2022-08-22T06:37:41.406Z,21.14
2022-08-22T06:38:53.084Z,21.14
2022-08-22T06:39:56.565Z,21.04
2022-08-22T06:41:03.215Z,21.10
2022-08-22T06:42:16.900Z,21.14
2022-08-22T06:43:22.695Z,21.05
2022-08-22T06:44:31.917Z,21.06
2022-08-22T06:45:35.793Z,21.04
2022-08-22T06:46:39.341Z,20.99
2022-08-22T06:48:00.231Z,20.95
2022-08-22T06:49:07.494Z,20.98
2022-08-22T06:50:18.133Z,21.04
2022-08-22T06:51:21.524Z,21.02
2022-08-22T06:52:29.859Z,21.07
2022-08-22T06:53:47.754Z,21.14
2022-08-22T06:54:59.306Z,21.24
2022-08-22T06:56:07.552Z,21.38
2022-08-22T06:57:50.147Z,21.49
2022-08-22T06:58:54.803Z,21.61
2022-08-22T07:00:00.549Z,21.58
2022-08-22T07:01:13.245Z,21.69
2022-08-22T07:02:25.452Z,21.83
2022-08-22T07:03:35.382Z,21.80
2022-08-22T07:04:39.556Z,21.94
2022-08-22T07:05:43.572Z,21.94
2022-08-22T07:06:50.701Z,22.02
2022-08-22T07:07:53.953Z,22.06
2022-08-22T07:08:57.971Z,22.13
2022-08-22T07:10:00.998Z,22.20
2022-08-22T07:11:21.935Z,22.32
2022-08-22T07:12:39.231Z,22.32
2022-08-22T07:13:57.322Z,22.42
2022-08-22T07:15:11.454Z,22.18
2022-08-22T07:16:15.256Z,22.22
2022-08-22T07:17:22.679Z,22.20
2022-08-22T07:18:28.659Z,22.08
2022-08-22T07:19:38.467Z,22.17
2022-08-22T07:20:45.348Z,22.37
2022-08-22T07:21:49.893Z,22.20
2022-08-22T07:23:07.497Z,21.99
2022-08-22T07:24:14.595Z,22.26
2022-08-22T07:25:17.449Z,22.43
2022-08-22T07:26:32.678Z,22.55
2022-08-22T07:28:18.820Z,22.64
2022-08-22T07:29:44.495Z,22.54
2022-08-22T07:30:54.328Z,22.58
2022-08-22T07:32:10.950Z,22.62
2022-08-22T07:33:34.138Z,22.53
2022-08-22T07:35:07.341Z,22.60
2022-08-22T07:36:40.887Z,22.40
2022-08-22T07:38:01.008Z,22.49
2022-08-22T07:39:11.323Z,22.47
2022-08-22T07:40:22.139Z,22.33
2022-08-22T07:41:37.224Z,22.44
2022-08-22T07:42:46.268Z,22.57
2022-08-22T07:44:00.347Z,22.50
2022-08-22T07:45:13.203Z,22.49
2022-08-22T07:46:28.081Z,22.58
2022-08-22T07:47:49.753Z,22.77
2022-08-22T07:49:13.680Z,22.61
2022-08-22T07:50:23.954Z,22.46
2022-08-22T07:51:36.069Z,22.38
2022-08-22T07:52:44.171Z,22.55
2022-08-22T07:54:07.588Z,22.59
2022-08-22T07:55:20.877Z,22.68
2022-08-22T07:56:28.667Z,22.66
2022-08-22T07:57:43.997Z,22.70
2022-08-22T07:58:52.055Z,22.54
2022-08-22T07:59:58.210Z,22.57
2022-08-22T08:01:02.276Z,22.76
2022-08-22T08:02:13.304Z,22.64
2022-08-22T08:03:17.883Z,22.66
2022-08-22T08:04:26.338Z,22.38
2022-08-22T08:05:36.286Z,22.54
2022-08-22T08:06:40.814Z,22.56
2022-08-22T08:07:48.224Z,22.73
2022-08-22T08:08:52.206Z,22.75
2022-08-22T08:10:14.740Z,22.84
2022-08-22T08:11:21.106Z,22.68
2022-08-22T08:12:34.134Z,22.51
2022-08-22T08:13:46.161Z,22.49
2022-08-22T08:14:55.092Z,22.51
2022-08-22T08:15:59.049Z,22.52
2022-08-22T08:17:13.849Z,22.37
2022-08-22T08:18:25.463Z,22.36
2022-08-22T08:19:30.190Z,22.28
2022-08-22T08:20:36.570Z,22.45
2022-08-22T08:21:46.959Z,22.19
2022-08-22T08:22:50.865Z,22.09
2022-08-22T08:23:55.178Z,21.96
2022-08-22T08:24:59.868Z,21.79
2022-08-22T08:26:16.036Z,21.89
2022-08-22T08:27:42.150Z,21.86
2022-08-22T08:28:49.611Z,21.67
2022-08-22T08:30:05.805Z,21.32
2022-08-22T08:31:18.007Z,21.42
2022-08-22T08:32:24.439Z,21.48
2022-08-22T08:33:32.821Z,21.50
2022-08-22T08:34:38.871Z,21.41
2022-08-22T08:36:01.934Z,21.44
2022-08-22T08:37:17.519Z,21.67
2022-08-22T08:38:31.459Z,21.63
2022-08-22T08:39:43.790Z,21.62
2022-08-22T08:41:11.801Z,21.53
2022-08-22T08:43:10.931Z,21.67
2022-08-22T08:44:36.022Z,21.60
2022-08-22T08:46:03.471Z,21.57
2022-08-22T08:47:23.754Z,21.65
2022-08-22T08:48:49.936Z,21.45
2022-08-22T08:50:31.770Z,21.33
2022-08-22T08:51:52.546Z,21.53
2022-08-22T08:53:27.183Z,21.29
2022-08-22T08:54:46.115Z,21.39
2022-08-22T08:56:19.805Z,21.36
2022-08-22T08:57:46.491Z,21.49
2022-08-22T08:59:04.097Z,21.64
2022-08-22T09:00:43.152Z,21.82
2022-08-22T09:02:04.628Z,21.84
2022-08-22T09:03:41.324Z,21.84
2022-08-22T09:05:01.882Z,21.85
2022-08-22T09:06:07.807Z,21.82
2022-08-22T09:07:35.999Z,21.73
2022-08-22T09:08:38.677Z,21.80
2022-08-22T09:09:55.323Z,21.83
2022-08-22T09:11:17.637Z,21.87
2022-08-22T09:12:56.146Z,21.92
2022-08-22T09:14:31.739Z,21.97
2022-08-22T09:16:13.474Z,22.19
2022-08-22T09:17:45.655Z,22.26
2022-08-22T09:18:54.662Z,22.22
2022-08-22T09:20:20.296Z,22.26
2022-08-22T09:21:41.452Z,22.42
2022-08-22T09:23:13.145Z,22.53
2022-08-22T09:24:27.913Z,22.55
2022-08-22T09:25:42.317Z,22.66
2022-08-22T09:27:04.040Z,22.86
2022-08-22T09:28:17.437Z,22.89
2022-08-22T09:29:28.981Z,23.12
2022-08-22T09:30:46.760Z,23.26
2022-08-22T09:32:13.196Z,23.51
2022-08-22T09:33:20.579Z,23.67
2022-08-22T09:34:50.099Z,23.84
2022-08-22T09:36:05.657Z,23.69
2022-08-22T09:37:21.213Z,23.79
2022-08-22T09:38:38.981Z,24.07
2022-08-22T09:40:01.613Z,24.17
2022-08-22T09:41:29.568Z,24.29
2022-08-22T09:43:11.010Z,24.26
2022-08-22T09:44:28.516Z,24.05
2022-08-22T09:45:50.012Z,24.10
2022-08-22T09:47:39.240Z,24.05
2022-08-22T09:49:16.480Z,23.72
2022-08-22T09:50:34.801Z,23.51
2022-08-22T09:51:38.915Z,23.71
2022-08-22T09:52:57.039Z,23.92
2022-08-22T09:54:11.619Z,23.60
2022-08-22T09:55:48.305Z,23.66
2022-08-22T09:57:01.699Z,23.84
2022-08-22T09:58:21.723Z,23.89
2022-08-22T09:59:25.337Z,23.95
2022-08-22T10:00:51.349Z,24.00
2022-08-22T10:02:15.368Z,23.73
2022-08-22T10:03:33.137Z,23.73
2022-08-22T10:04:42.491Z,23.67
2022-08-22T10:05:57.719Z,23.50
2022-08-22T10:07:28.576Z,23.47
2022-08-22T10:08:46.826Z,23.15
2022-08-22T10:10:13.172Z,23.04
2022-08-22T10:11:24.828Z,23.17
2022-08-22T10:12:55.903Z,23.41
2022-08-22T10:14:51.096Z,23.47
2022-08-22T10:16:15.173Z,23.49
2022-08-22T10:17:30.925Z,23.54
2022-08-22T10:18:43.962Z,23.53
2022-08-22T10:20:11.049Z,23.56
2022-08-22T10:21:30.197Z,23.65
2022-08-22T10:22:41.807Z,23.22
2022-08-22T10:24:01.900Z,23.11
2022-08-22T10:25:33.031Z,23.20
2022-08-22T10:26:58.695Z,23.36
2022-08-22T10:28:21.328Z,23.32
2022-08-22T10:29:45.685Z,23.11
2022-08-22T10:31:13.342Z,23.33
2022-08-22T10:32:49.599Z,23.38
2022-08-22T10:33:55.135Z,23.32
2022-08-22T10:35:19.290Z,23.47
2022-08-22T10:36:32.956Z,23.39
2022-08-22T10:37:46.669Z,23.51
2022-08-22T10:38:55.630Z,23.54
2022-08-22T10:40:04.520Z,23.78
2022-08-22T10:41:45.498Z,23.77
2022-08-22T10:43:00.320Z,23.78
2022-08-22T10:44:10.957Z,23.85
2022-08-22T10:45:32.120Z,24.06
2022-08-22T10:47:02.305Z,23.93
2022-08-22T10:48:08.812Z,24.32
2022-08-22T10:49:28.352Z,24.55
2022-08-22T10:50:40.492Z,24.49
2022-08-22T10:51:57.176Z,24.92
2022-08-22T10:53:29.429Z,24.79
2022-08-22T10:55:01.589Z,25.10
2022-08-22T10:56:50.099Z,25.37
2022-08-22T10:58:12.937Z,25.64
2022-08-22T10:59:37.065Z,25.16
2022-08-22T11:00:46.176Z,25.14
2022-08-22T11:02:14.950Z,25.17
2022-08-22T11:03:31.925Z,25.16
2022-08-22T11:05:23.165Z,25.49
2022-08-22T11:06:33.880Z,25.22
2022-08-22T11:07:56.063Z,25.23
2022-08-22T11:09:01.030Z,25.39
2022-08-22T11:10:12.833Z,25.54
2022-08-22T11:11:36.768Z,25.75
2022-08-22T11:12:49.836Z,25.79
2022-08-22T11:14:25.253Z,26.08
2022-08-22T11:15:57.367Z,26.31
2022-08-22T11:17:27.430Z,26.61
2022-08-22T11:19:14.928Z,26.27
2022-08-22T11:21:04.356Z,25.89
2022-08-22T11:22:30.591Z,26.06
2022-08-22T11:23:42.751Z,26.22
2022-08-22T11:25:14.052Z,26.39
2022-08-22T11:26:30.269Z,26.38
2022-08-22T11:27:59.546Z,26.30
2022-08-22T11:29:31.575Z,26.27
2022-08-22T11:30:47.155Z,25.74
2022-08-22T11:32:10.218Z,25.91
2022-08-22T11:33:46.195Z,25.85
2022-08-22T11:35:09.056Z,25.84
2022-08-22T11:36:41.780Z,25.90
2022-08-22T11:38:04.028Z,25.76
2022-08-22T11:39:22.200Z,25.80
2022-08-22T11:40:40.455Z,25.90
2022-08-22T11:42:06.831Z,26.22
2022-08-22T11:43:18.007Z,26.56
2022-08-22T11:44:34.525Z,26.72
2022-08-22T11:45:49.176Z,26.59
2022-08-22T11:46:58.013Z,26.49
2022-08-22T11:48:20.035Z,26.48
2022-08-22T11:49:32.892Z,26.18
2022-08-22T11:51:24.921Z,26.13
2022-08-22T11:52:51.954Z,26.28
2022-08-22T11:54:11.182Z,26.45
2022-08-22T11:55:47.552Z,26.59
2022-08-22T11:57:03.885Z,26.78
2022-08-22T11:58:43.085Z,26.98
2022-08-22T11:59:45.640Z,27.40
2022-08-22T12:01:18.357Z,27.83
2022-08-22T12:02:35.338Z,27.55
2022-08-22T12:04:03.410Z,27.68
2022-08-22T12:05:19.663Z,27.43
2022-08-22T12:06:57.763Z,27.04
2022-08-22T12:08:40.992Z,27.07
2022-08-22T12:10:13.679Z,27.32
2022-08-22T12:11:27.042Z,27.31
2022-08-22T12:12:44.623Z,27.13
2022-08-22T12:14:18.496Z,27.42
2022-08-22T12:15:53.757Z,27.03
2022-08-22T12:17:55.714Z,26.86
2022-08-22T12:19:16.582Z,26.88
2022-08-22T12:20:50.040Z,26.46
2022-08-22T12:22:11.453Z,25.92
2022-08-22T12:23:43.310Z,26.60
2022-08-22T12:25:10.627Z,26.81
2022-08-22T12:26:19.433Z,26.84
2022-08-22T12:27:30.998Z,26.57
2022-08-22T12:28:53.752Z,26.81
2022-08-22T12:30:05.763Z,26.71
2022-08-22T12:31:42.415Z,26.15
2022-08-22T12:33:03.074Z,26.36
2022-08-22T12:34:31.646Z,25.75
2022-08-22T12:36:18.314Z,25.83
2022-08-22T12:37:52.196Z,25.60
2022-08-22T12:39:17.126Z,25.76
2022-08-22T12:40:36.690Z,25.03
2022-08-22T12:42:14.563Z,25.19
2022-08-22T12:43:42.472Z,25.35
2022-08-22T12:45:04.073Z,25.29
2022-08-22T12:46:16.740Z,25.16
2022-08-22T12:48:00.151Z,25.27
2022-08-22T12:49:07.653Z,25.04
2022-08-22T12:50:34.442Z,24.97
2022-08-22T12:51:56.130Z,24.60
2022-08-22T12:53:32.771Z,24.89
2022-08-22T12:55:09.424Z,24.65
2022-08-22T12:56:27.722Z,24.76
2022-08-22T12:57:54.156Z,24.84
2022-08-22T12:59:15.744Z,24.83
2022-08-22T13:00:35.173Z,24.55
2022-08-22T13:01:43.929Z,24.71
2022-08-22T13:02:51.674Z,24.73
2022-08-22T13:03:59.823Z,24.61
2022-08-22T13:05:09.359Z,24.50
2022-08-22T13:06:34.022Z,24.31
2022-08-22T13:07:41.754Z,24.14
2022-08-22T13:08:46.456Z,24.24
2022-08-22T13:09:58.194Z,24.19
2022-08-22T13:11:10.003Z,24.12
2022-08-22T13:12:36.781Z,24.24
2022-08-22T13:13:56.117Z,24.11
2022-08-22T13:15:10.737Z,23.47
2022-08-22T13:16:19.752Z,23.06
2022-08-22T13:17:25.309Z,23.18
2022-08-22T13:18:56.458Z,23.26
2022-08-22T13:20:06.564Z,23.45
2022-08-22T13:21:15.937Z,23.50
2022-08-22T13:22:29.028Z,23.67
2022-08-22T13:23:42.523Z,23.61
2022-08-22T13:25:04.927Z,23.87
2022-08-22T13:26:10.676Z,23.62
2022-08-22T13:27:30.425Z,23.79
2022-08-22T13:28:42.442Z,23.80
2022-08-22T13:29:52.192Z,23.79
2022-08-22T13:31:00.460Z,23.37
2022-08-22T13:32:04.727Z,23.44
2022-08-22T13:33:29.937Z,23.62
2022-08-22T13:34:45.577Z,23.47
2022-08-22T13:36:03.957Z,23.97
2022-08-22T13:37:14.325Z,23.99
2022-08-22T13:38:35.101Z,24.10
2022-08-22T13:39:45.398Z,23.79
2022-08-22T13:40:51.750Z,24.12
2022-08-22T13:42:01.505Z,23.82
2022-08-22T13:43:20.863Z,24.04
2022-08-22T13:44:37.563Z,23.71
2022-08-22T13:46:01.889Z,23.70
2022-08-22T13:47:14.539Z,23.62
2022-08-22T13:48:23.209Z,23.44
2022-08-22T13:49:35.144Z,23.45
2022-08-22T13:50:58.733Z,23.30
2022-08-22T13:52:30.397Z,23.31
2022-08-22T13:54:10.843Z,23.31
2022-08-22T13:55:30.392Z,23.09
2022-08-22T13:56:47.616Z,23.15
2022-08-22T13:58:34.773Z,23.44
2022-08-22T13:59:57.653Z,23.21
2022-08-22T14:01:10.659Z,23.33
2022-08-22T14:02:18.944Z,23.43
2022-08-22T14:03:35.977Z,23.39
2022-08-22T14:04:44.253Z,23.34
2022-08-22T14:05:53.191Z,23.33
2022-08-22T14:07:02.207Z,23.32
2022-08-22T14:08:13.419Z,23.28
2022-08-22T14:09:39.301Z,23.17
2022-08-22T14:10:55.002Z,22.99
2022-08-22T14:12:17.589Z,23.04
2022-08-22T14:13:53.339Z,22.85
2022-08-22T14:14:59.963Z,22.56
2022-08-22T14:16:07.097Z,22.40
2022-08-22T14:17:20.924Z,22.28
2022-08-22T14:18:32.513Z,22.00
2022-08-22T14:19:52.878Z,22.01
2022-08-22T14:21:24.384Z,22.01
2022-08-22T14:22:34.962Z,21.71
2022-08-22T14:23:38.753Z,21.65
2022-08-22T14:24:45.564Z,21.71
2022-08-22T14:25:49.380Z,21.60
2022-08-22T14:27:05.138Z,21.46
2022-08-22T14:28:23.557Z,21.61
2022-08-22T14:29:39.345Z,21.59
2022-08-22T14:31:07.567Z,21.47
2022-08-22T14:32:35.426Z,21.52
2022-08-22T14:33:49.045Z,21.50
2022-08-22T14:35:25.550Z,21.39
2022-08-22T14:36:56.213Z,21.41
2022-08-22T14:38:17.326Z,21.25
2022-08-22T14:39:36.002Z,21.42
2022-08-22T14:40:40.473Z,21.40
2022-08-22T14:41:55.441Z,21.37
2022-08-22T14:43:15.630Z,21.47
2022-08-22T14:44:36.315Z,21.42
2022-08-22T14:45:45.465Z,21.24
2022-08-22T14:46:56.881Z,21.33
2022-08-22T14:48:29.610Z,21.27
2022-08-22T14:49:54.564Z,21.22
2022-08-22T14:51:06.348Z,21.14
2022-08-22T14:52:25.954Z,20.99
2022-08-22T14:53:38.216Z,20.92
2022-08-22T14:54:42.667Z,20.98
2022-08-22T14:56:08.135Z,21.04
2022-08-22T14:57:20.342Z,21.26
2022-08-22T14:58:26.429Z,21.27
2022-08-22T14:59:39.594Z,21.02
2022-08-22T15:00:50.143Z,21.00
2022-08-22T15:02:01.618Z,20.86
2022-08-22T15:03:09.247Z,20.67
2022-08-22T15:04:21.255Z,20.73
2022-08-22T15:05:24.410Z,20.88
2022-08-22T15:06:31.852Z,21.14
2022-08-22T15:07:37.571Z,21.21
2022-08-22T15:08:53.642Z,21.20
2022-08-22T15:10:26.985Z,21.04
2022-08-22T15:11:36.759Z,20.78
2022-08-22T15:12:54.112Z,21.09
2022-08-22T15:14:05.155Z,21.11
2022-08-22T15:15:29.436Z,21.16
2022-08-22T15:16:46.624Z,21.17
2022-08-22T15:17:50.860Z,21.04
2022-08-22T15:19:21.689Z,21.10
2022-08-22T15:20:28.780Z,21.06
2022-08-22T15:21:33.848Z,20.95
2022-08-22T15:22:46.480Z,21.07
2022-08-22T15:23:49.805Z,21.23
2022-08-22T15:25:17.941Z,21.22
2022-08-22T15:26:34.398Z,20.95
2022-08-22T15:27:47.361Z,21.21
2022-08-22T15:29:14.783Z,21.15
2022-08-22T15:30:36.021Z,21.02
2022-08-22T15:31:41.680Z,20.88
2022-08-22T15:32:49.232Z,20.76
2022-08-22T15:33:52.374Z,20.76
2022-08-22T15:35:11.836Z,20.82
2022-08-22T15:36:27.083Z,20.77
2022-08-22T15:37:33.231Z,20.83
2022-08-22T15:38:44.465Z,20.93
2022-08-22T15:40:32.254Z,20.67
2022-08-22T15:41:41.365Z,20.59
2022-08-22T15:42:48.319Z,20.79
2022-08-22T15:44:32.580Z,20.84
2022-08-22T15:45:38.781Z,20.56
2022-08-22T15:46:55.923Z,20.63
2022-08-22T15:48:04.432Z,20.42
2022-08-22T15:49:10.714Z,20.52
2022-08-22T15:50:30.443Z,20.76
2022-08-22T15:51:46.514Z,20.63
2022-08-22T15:53:30.126Z,20.50
2022-08-22T15:55:11.621Z,20.27
2022-08-22T15:56:15.983Z,20.41
2022-08-22T15:57:41.133Z,20.43
2022-08-22T15:58:49.795Z,20.40
2022-08-22T15:59:57.637Z,20.39
2022-08-22T16:01:18.820Z,20.33
2022-08-22T16:02:40.125Z,20.37
2022-08-22T16:04:03.209Z,20.27
2022-08-22T16:05:12.012Z,20.45
2022-08-22T16:06:40.387Z,20.23
2022-08-22T16:07:50.352Z,20.16
2022-08-22T16:08:55.550Z,20.26
2022-08-22T16:09:59.658Z,20.26
2022-08-22T16:11:02.168Z,20.22
2022-08-22T16:12:13.085Z,20.19
2022-08-22T16:13:29.487Z,20.09
2022-08-22T16:14:37.744Z,20.14
2022-08-22T16:15:54.361Z,20.14
2022-08-22T16:17:08.290Z,19.97
2022-08-22T16:18:34.549Z,19.91
2022-08-22T16:19:38.427Z,20.00
2022-08-22T16:20:50.069Z,19.92
2022-08-22T16:21:53.627Z,19.95
2022-08-22T16:22:58.855Z,20.01
2022-08-22T16:24:01.560Z,19.73
2022-08-22T16:25:10.607Z,19.72
2022-08-22T16:26:24.134Z,19.85
2022-08-22T16:27:28.063Z,19.78
2022-08-22T16:28:58.799Z,19.82
2022-08-22T16:30:08.830Z,19.83
2022-08-22T16:31:34.727Z,19.67
2022-08-22T16:32:39.055Z,19.95
2022-08-22T16:33:43.662Z,19.95
2022-08-22T16:34:46.690Z,19.93
2022-08-22T16:36:36.655Z,19.94
2022-08-22T16:37:50.108Z,20.04
2022-08-22T16:38:56.881Z,19.95
2022-08-22T16:40:01.407Z,20.03
2022-08-22T16:41:04.834Z,20.07
2022-08-22T16:42:16.280Z,19.91
2022-08-22T16:43:23.868Z,19.94